Terminal Aerodrome Forecast
Issued by NWS

Home | Current Version | Previous Version | Graphics & Text | Print | Product List | Glossary On
Versions: 1 2 3 4 5 6 7 8 9 10 11 12 13 14 15 16 17
000
FTUS42 KMHX 141500 AAA
TAFISO
TAF AMD
KISO 141500Z 1415/1512 32006KT P6SM VCSH OVC006
     FM141700 35006KT P6SM BKN015
     FM142200 VRB04KT P6SM BKN035
     FM150600 00000KT 3SM BR SCT003
      AMD LTD TO CLD VIS AND WIND=

USA.gov is the U.S. government's official web portal to all federal, state and local government web resources and services.